sensor_id;sensor_type;location;lat;lon;timestamp;pressure;altitude;pressure_sealevel;temperature;humidity
27202;BME280;14717;46.924;15.474;2022-12-13T00:01:44;97539.97;;;-4.80;87.69
27202;BME280;14717;46.924;15.474;2022-12-13T00:04:10;97542.44;;;-4.85;88.04
27202;BME280;14717;46.924;15.474;2022-12-13T00:06:35;97532.53;;;-4.91;87.92
27202;BME280;14717;46.924;15.474;2022-12-13T00:09:03;97535.00;;;-4.83;88.56
27202;BME280;14717;46.924;15.474;2022-12-13T00:11:28;97533.75;;;-4.87;87.84
27202;BME280;14717;46.924;15.474;2022-12-13T00:13:54;97534.56;;;-5.00;88.09
27202;BME280;14717;46.924;15.474;2022-12-13T00:16:21;97536.56;;;-5.21;88.22
27202;BME280;14717;46.924;15.474;2022-12-13T00:18:51;97534.13;;;-5.22;88.73
27202;BME280;14717;46.924;15.474;2022-12-13T00:21:19;97535.38;;;-5.12;88.95
27202;BME280;14717;46.924;15.474;2022-12-13T00:23:45;97533.31;;;-4.97;88.34
27202;BME280;14717;46.924;15.474;2022-12-13T00:26:13;97534.31;;;-5.11;87.37
27202;BME280;14717;46.924;15.474;2022-12-13T00:28:39;97537.88;;;-5.10;87.47
27202;BME280;14717;46.924;15.474;2022-12-13T00:31:05;97536.41;;;-5.13;88.15
27202;BME280;14717;46.924;15.474;2022-12-13T00:33:31;97529.19;;;-5.06;87.12
27202;BME280;14717;46.924;15.474;2022-12-13T00:35:56;97531.81;;;-5.25;86.80
27202;BME280;14717;46.924;15.474;2022-12-13T00:38:22;97537.78;;;-5.43;88.16
27202;BME280;14717;46.924;15.474;2022-12-13T00:40:48;97534.41;;;-5.57;88.60
27202;BME280;14717;46.924;15.474;2022-12-13T00:43:13;97538.16;;;-5.46;88.36
27202;BME280;14717;46.924;15.474;2022-12-13T00:45:39;97540.28;;;-5.35;87.95
27202;BME280;14717;46.924;15.474;2022-12-13T00:48:05;97533.66;;;-5.26;87.84
27202;BME280;14717;46.924;15.474;2022-12-13T00:50:30;97534.13;;;-5.22;87.64
27202;BME280;14717;46.924;15.474;2022-12-13T00:52:58;97538.81;;;-5.31;86.58
27202;BME280;14717;46.924;15.474;2022-12-13T00:55:23;97541.75;;;-5.32;87.49
27202;BME280;14717;46.924;15.474;2022-12-13T00:57:49;97536.13;;;-5.31;87.59
27202;BME280;14717;46.924;15.474;2022-12-13T01:00:14;97547.56;;;-5.29;87.57
27202;BME280;14717;46.924;15.474;2022-12-13T01:02:39;97550.25;;;-5.29;87.73
27202;BME280;14717;46.924;15.474;2022-12-13T01:05:06;97548.38;;;-5.28;87.65
27202;BME280;14717;46.924;15.474;2022-12-13T01:07:32;97553.53;;;-5.33;87.73
27202;BME280;14717;46.924;15.474;2022-12-13T01:09:57;97558.94;;;-5.27;88.80
27202;BME280;14717;46.924;15.474;2022-12-13T01:12:22;97553.56;;;-5.20;88.81
27202;BME280;14717;46.924;15.474;2022-12-13T01:14:48;97557.69;;;-5.18;87.72
27202;BME280;14717;46.924;15.474;2022-12-13T01:17:13;97554.97;;;-5.31;88.30
27202;BME280;14717;46.924;15.474;2022-12-13T01:19:39;97551.81;;;-5.53;87.94
27202;BME280;14717;46.924;15.474;2022-12-13T01:22:05;97549.69;;;-5.64;88.25
27202;BME280;14717;46.924;15.474;2022-12-13T01:24:31;97550.53;;;-5.57;89.04
27202;BME280;14717;46.924;15.474;2022-12-13T01:26:57;97552.22;;;-5.56;88.66
27202;BME280;14717;46.924;15.474;2022-12-13T01:29:23;97557.75;;;-5.64;88.62
27202;BME280;14717;46.924;15.474;2022-12-13T01:31:49;97550.16;;;-5.54;89.30
27202;BME280;14717;46.924;15.474;2022-12-13T01:34:17;97553.25;;;-5.51;88.00
27202;BME280;14717;46.924;15.474;2022-12-13T01:36:44;97560.50;;;-5.51;87.40
27202;BME280;14717;46.924;15.474;2022-12-13T01:39:12;97553.25;;;-5.51;87.51
27202;BME280;14717;46.924;15.474;2022-12-13T01:41:38;97549.53;;;-5.50;87.18
27202;BME280;14717;46.924;15.474;2022-12-13T01:44:05;97553.66;;;-5.54;86.63
27202;BME280;14717;46.924;15.474;2022-12-13T01:46:33;97553.63;;;-5.73;86.49
27202;BME280;14717;46.924;15.474;2022-12-13T01:49:08;97557.31;;;-5.74;87.36
27202;BME280;14717;46.924;15.474;2022-12-13T01:51:46;97553.00;;;-5.62;87.16
27202;BME280;14717;46.924;15.474;2022-12-13T01:54:18;97549.47;;;-5.69;86.37
27202;BME280;14717;46.924;15.474;2022-12-13T01:56:52;97549.16;;;-5.93;86.29
27202;BME280;14717;46.924;15.474;2022-12-13T01:59:20;97547.09;;;-5.92;86.49
27202;BME280;14717;46.924;15.474;2022-12-13T02:01:48;97545.66;;;-5.94;87.10
27202;BME280;14717;46.924;15.474;2022-12-13T02:04:19;97553.22;;;-6.10;86.82
27202;BME280;14717;46.924;15.474;2022-12-13T02:06:48;97546.16;;;-6.11;86.53
27202;BME280;14717;46.924;15.474;2022-12-13T02:09:14;97551.06;;;-6.21;86.75
27202;BME280;14717;46.924;15.474;2022-12-13T02:11:41;97546.84;;;-6.36;87.89
27202;BME280;14717;46.924;15.474;2022-12-13T02:14:07;97549.22;;;-6.48;87.72
27202;BME280;14717;46.924;15.474;2022-12-13T02:17:24;97543.66;;;-6.46;89.17
27202;BME280;14717;46.924;15.474;2022-12-13T02:30:43;97552.69;;;-6.27;88.27
27202;BME280;14717;46.924;15.474;2022-12-13T02:33:27;97547.06;;;-6.32;87.12
27202;BME280;14717;46.924;15.474;2022-12-13T02:39:10;97536.25;;;-6.44;88.07
27202;BME280;14717;46.924;15.474;2022-12-13T02:41:49;97540.09;;;-6.53;88.53
27202;BME280;14717;46.924;15.474;2022-12-13T02:44:28;97536.63;;;-6.47;88.90
27202;BME280;14717;46.924;15.474;2022-12-13T02:47:00;97534.41;;;-6.37;87.89
27202;BME280;14717;46.924;15.474;2022-12-13T02:49:30;97541.28;;;-6.35;87.77
27202;BME280;14717;46.924;15.474;2022-12-13T02:51:58;97541.06;;;-6.33;87.86
27202;BME280;14717;46.924;15.474;2022-12-13T02:54:24;97536.19;;;-6.24;87.64
27202;BME280;14717;46.924;15.474;2022-12-13T02:56:54;97543.47;;;-6.18;86.94
27202;BME280;14717;46.924;15.474;2022-12-13T02:59:20;97541.66;;;-6.38;87.03
27202;BME280;14717;46.924;15.474;2022-12-13T03:02:20;97531.53;;;-6.36;87.37
27202;BME280;14717;46.924;15.474;2022-12-13T03:05:00;97540.22;;;-6.40;86.47
27202;BME280;14717;46.924;15.474;2022-12-13T03:08:00;97538.06;;;-6.51;86.42
27202;BME280;14717;46.924;15.474;2022-12-13T03:10:40;97536.91;;;-6.36;87.19
27202;BME280;14717;46.924;15.474;2022-12-13T03:13:13;97527.41;;;-6.38;86.48
27202;BME280;14717;46.924;15.474;2022-12-13T03:16:07;97539.00;;;-6.65;87.18
27202;BME280;14717;46.924;15.474;2022-12-13T03:18:33;97536.19;;;-6.78;88.27
27202;BME280;14717;46.924;15.474;2022-12-13T03:21:03;97535.41;;;-6.72;88.01
27202;BME280;14717;46.924;15.474;2022-12-13T03:23:29;97537.91;;;-6.71;87.57
27202;BME280;14717;46.924;15.474;2022-12-13T03:25:59;97541.38;;;-6.49;87.85
27202;BME280;14717;46.924;15.474;2022-12-13T03:28:26;97535.03;;;-6.42;87.02
27202;BME280;14717;46.924;15.474;2022-12-13T03:30:51;97532.41;;;-6.35;85.98
27202;BME280;14717;46.924;15.474;2022-12-13T03:33:17;97544.38;;;-6.32;86.53
27202;BME280;14717;46.924;15.474;2022-12-13T03:35:43;97546.44;;;-6.33;86.08
27202;BME280;14717;46.924;15.474;2022-12-13T03:38:09;97540.69;;;-6.31;86.47
27202;BME280;14717;46.924;15.474;2022-12-13T03:40:35;97542.75;;;-6.26;86.31
27202;BME280;14717;46.924;15.474;2022-12-13T03:43:01;97541.94;;;-6.27;86.35
27202;BME280;14717;46.924;15.474;2022-12-13T03:45:26;97537.72;;;-6.42;85.05
27202;BME280;14717;46.924;15.474;2022-12-13T03:47:52;97540.50;;;-6.56;86.06
27202;BME280;14717;46.924;15.474;2022-12-13T03:50:17;97538.25;;;-6.53;86.70
27202;BME280;14717;46.924;15.474;2022-12-13T03:52:43;97540.97;;;-6.46;87.14
27202;BME280;14717;46.924;15.474;2022-12-13T03:55:08;97541.47;;;-6.36;86.83
27202;BME280;14717;46.924;15.474;2022-12-13T03:57:34;97532.34;;;-6.42;86.96
27202;BME280;14717;46.924;15.474;2022-12-13T03:59:59;97538.06;;;-6.51;86.93
27202;BME280;14717;46.924;15.474;2022-12-13T04:02:25;97541.25;;;-6.69;86.82
27202;BME280;14717;46.924;15.474;2022-12-13T04:04:50;97543.88;;;-6.75;88.09
27202;BME280;14717;46.924;15.474;2022-12-13T04:07:15;97539.44;;;-6.62;88.17
27202;BME280;14717;46.924;15.474;2022-12-13T04:09:41;97538.28;;;-6.46;87.70
27202;BME280;14717;46.924;15.474;2022-12-13T04:12:06;97530.88;;;-6.44;86.94
27202;BME280;14717;46.924;15.474;2022-12-13T04:14:50;97545.38;;;-6.66;85.94
27202;BME280;14717;46.924;15.474;2022-12-13T04:17:15;97541.19;;;-6.75;87.09
27202;BME280;14717;46.924;15.474;2022-12-13T04:19:41;97549.00;;;-6.80;88.10
27202;BME280;14717;46.924;15.474;2022-12-13T04:22:06;97547.81;;;-6.71;87.32
27202;BME280;14717;46.924;15.474;2022-12-13T04:24:31;97550.16;;;-6.62;86.52
27202;BME280;14717;46.924;15.474;2022-12-13T04:26:57;97550.34;;;-6.63;86.29
27202;BME280;14717;46.924;15.474;2022-12-13T04:29:22;97548.88;;;-6.66;86.23
27202;BME280;14717;46.924;15.474;2022-12-13T04:31:47;97553.63;;;-6.68;86.70
27202;BME280;14717;46.924;15.474;2022-12-13T04:34:13;97553.63;;;-6.68;88.25
27202;BME280;14717;46.924;15.474;2022-12-13T04:36:38;97546.69;;;-6.83;87.85
27202;BME280;14717;46.924;15.474;2022-12-13T04:39:04;97554.66;;;-6.89;87.42
27202;BME280;14717;46.924;15.474;2022-12-13T04:41:37;97547.91;;;-7.06;87.47
27202;BME280;14717;46.924;15.474;2022-12-13T04:44:04;97543.69;;;-7.15;89.05
27202;BME280;14717;46.924;15.474;2022-12-13T04:46:31;97537.75;;;-7.11;89.42
27202;BME280;14717;46.924;15.474;2022-12-13T04:48:56;97536.16;;;-7.05;89.36
27202;BME280;14717;46.924;15.474;2022-12-13T04:51:22;97543.44;;;-6.99;89.73
27202;BME280;14717;46.924;15.474;2022-12-13T04:53:47;97541.88;;;-6.87;89.80
27202;BME280;14717;46.924;15.474;2022-12-13T04:56:12;97542.56;;;-6.79;89.00
27202;BME280;14717;46.924;15.474;2022-12-13T04:58:38;97539.66;;;-6.84;88.28
27202;BME280;14717;46.924;15.474;2022-12-13T05:01:07;97539.13;;;-6.73;87.40
27202;BME280;14717;46.924;15.474;2022-12-13T05:03:34;97541.44;;;-6.70;86.89
27202;BME280;14717;46.924;15.474;2022-12-13T05:06:04;97542.25;;;-6.70;86.18
27202;BME280;14717;46.924;15.474;2022-12-13T05:08:29;97540.69;;;-6.85;87.48
27202;BME280;14717;46.924;15.474;2022-12-13T05:10:54;97544.56;;;-7.08;87.26
27202;BME280;14717;46.924;15.474;2022-12-13T05:13:20;97545.28;;;-7.20;87.53
27202;BME280;14717;46.924;15.474;2022-12-13T05:15:45;97550.66;;;-7.20;88.38
27202;BME280;14717;46.924;15.474;2022-12-13T05:18:10;97542.44;;;-7.19;88.05
27202;BME280;14717;46.924;15.474;2022-12-13T05:20:37;97545.81;;;-7.11;88.77
27202;BME280;14717;46.924;15.474;2022-12-13T05:23:03;97543.69;;;-6.94;88.48
27202;BME280;14717;46.924;15.474;2022-12-13T05:25:28;97551.28;;;-6.98;87.13
27202;BME280;14717;46.924;15.474;2022-12-13T05:27:55;97552.06;;;-7.04;86.94
27202;BME280;14717;46.924;15.474;2022-12-13T05:30:21;97550.25;;;-6.97;86.85
27202;BME280;14717;46.924;15.474;2022-12-13T05:32:46;97547.44;;;-6.89;85.83
27202;BME280;14717;46.924;15.474;2022-12-13T05:35:12;97544.56;;;-6.87;85.36
27202;BME280;14717;46.924;15.474;2022-12-13T05:37:39;97538.50;;;-6.96;84.90
27202;BME280;14717;46.924;15.474;2022-12-13T05:40:06;97539.69;;;-7.05;84.37
27202;BME280;14717;46.924;15.474;2022-12-13T05:42:31;97534.31;;;-7.05;85.75
27202;BME280;14717;46.924;15.474;2022-12-13T05:44:57;97535.44;;;-6.93;85.79
27202;BME280;14717;46.924;15.474;2022-12-13T05:47:22;97537.16;;;-6.85;85.69
27202;BME280;14717;46.924;15.474;2022-12-13T05:49:47;97536.84;;;-6.97;85.16
27202;BME280;14717;46.924;15.474;2022-12-13T05:52:20;97537.88;;;-7.18;84.89
27202;BME280;14717;46.924;15.474;2022-12-13T05:54:46;97538.41;;;-7.29;85.37
27202;BME280;14717;46.924;15.474;2022-12-13T05:57:12;97536.47;;;-7.35;86.25
27202;BME280;14717;46.924;15.474;2022-12-13T05:59:37;97531.41;;;-7.45;86.39
27202;BME280;14717;46.924;15.474;2022-12-13T06:02:03;97527.34;;;-7.41;87.60
27202;BME280;14717;46.924;15.474;2022-12-13T06:04:28;97529.31;;;-7.28;87.59
27202;BME280;14717;46.924;15.474;2022-12-13T06:06:53;97531.75;;;-7.13;87.33
27202;BME280;14717;46.924;15.474;2022-12-13T06:09:20;97528.97;;;-7.05;85.96
27202;BME280;14717;46.924;15.474;2022-12-13T06:11:45;97524.22;;;-7.23;85.91
27202;BME280;14717;46.924;15.474;2022-12-13T06:14:11;97525.50;;;-7.19;85.19
27202;BME280;14717;46.924;15.474;2022-12-13T06:16:36;97526.50;;;-7.41;85.63
27202;BME280;14717;46.924;15.474;2022-12-13T06:19:02;97532.38;;;-7.52;86.62
27202;BME280;14717;46.924;15.474;2022-12-13T06:21:27;97529.34;;;-7.49;87.25
27202;BME280;14717;46.924;15.474;2022-12-13T06:23:53;97532.06;;;-7.43;86.95
27202;BME280;14717;46.924;15.474;2022-12-13T06:26:18;97526.91;;;-7.44;86.74
27202;BME280;14717;46.924;15.474;2022-12-13T06:28:44;97530.09;;;-7.55;85.96
27202;BME280;14717;46.924;15.474;2022-12-13T06:31:09;97532.13;;;-7.57;86.34
27202;BME280;14717;46.924;15.474;2022-12-13T06:33:34;97522.78;;;-7.61;87.38
27202;BME280;14717;46.924;15.474;2022-12-13T06:36:01;97537.47;;;-7.57;87.75
27202;BME280;14717;46.924;15.474;2022-12-13T06:38:27;97537.03;;;-7.60;87.92
27202;BME280;14717;46.924;15.474;2022-12-13T06:40:53;97534.28;;;-7.67;87.72
27202;BME280;14717;46.924;15.474;2022-12-13T06:43:19;97528.22;;;-7.55;88.33
27202;BME280;14717;46.924;15.474;2022-12-13T06:45:45;97538.91;;;-7.40;88.09
27202;BME280;14717;46.924;15.474;2022-12-13T06:48:10;97540.56;;;-7.18;87.47
27202;BME280;14717;46.924;15.474;2022-12-13T06:50:36;97539.88;;;-7.06;87.06
27202;BME280;14717;46.924;15.474;2022-12-13T06:53:01;97534.81;;;-7.16;86.17
27202;BME280;14717;46.924;15.474;2022-12-13T06:55:27;97534.94;;;-7.23;86.06
27202;BME280;14717;46.924;15.474;2022-12-13T06:57:52;97534.06;;;-7.30;86.49
27202;BME280;14717;46.924;15.474;2022-12-13T07:00:18;97536.88;;;-7.18;86.73
27202;BME280;14717;46.924;15.474;2022-12-13T07:02:43;97541.69;;;-7.07;86.34
27202;BME280;14717;46.924;15.474;2022-12-13T07:05:09;97536.09;;;-7.12;86.67
27202;BME280;14717;46.924;15.474;2022-12-13T07:07:34;97537.00;;;-7.05;86.45
27202;BME280;14717;46.924;15.474;2022-12-13T07:09:59;97537.63;;;-7.03;85.77
27202;BME280;14717;46.924;15.474;2022-12-13T07:12:25;97537.63;;;-7.03;86.10
27202;BME280;14717;46.924;15.474;2022-12-13T07:14:50;97543.44;;;-6.99;86.78
27202;BME280;14717;46.924;15.474;2022-12-13T07:17:16;97548.25;;;-6.95;86.50
27202;BME280;14717;46.924;15.474;2022-12-13T07:19:41;97557.28;;;-6.96;86.93
27202;BME280;14717;46.924;15.474;2022-12-13T07:22:07;97553.84;;;-6.90;87.82
27202;BME280;14717;46.924;15.474;2022-12-13T07:24:35;97541.44;;;-6.91;88.14
27202;BME280;14717;46.924;15.474;2022-12-13T07:27:02;97550.44;;;-6.98;88.52
27202;BME280;14717;46.924;15.474;2022-12-13T07:29:27;97562.34;;;-6.86;89.33
27202;BME280;14717;46.924;15.474;2022-12-13T07:31:52;97563.47;;;-6.75;89.14
27202;BME280;14717;46.924;15.474;2022-12-13T07:34:18;97564.03;;;-6.58;89.26
27202;BME280;14717;46.924;15.474;2022-12-13T07:36:43;97577.38;;;-6.37;88.31
27202;BME280;14717;46.924;15.474;2022-12-13T07:39:08;97566.13;;;-6.27;87.84
27202;BME280;14717;46.924;15.474;2022-12-13T07:41:34;97568.66;;;-6.19;87.61
27202;BME280;14717;46.924;15.474;2022-12-13T07:43:59;97564.38;;;-6.07;88.17
27202;BME280;14717;46.924;15.474;2022-12-13T07:46:24;97567.31;;;-6.02;87.76
27202;BME280;14717;46.924;15.474;2022-12-13T07:48:50;97560.75;;;-5.93;87.97
27202;BME280;14717;46.924;15.474;2022-12-13T07:51:15;97556.88;;;-5.84;87.88
27202;BME280;14717;46.924;15.474;2022-12-13T07:53:40;97557.72;;;-5.77;87.99
27202;BME280;14717;46.924;15.474;2022-12-13T07:56:08;97561.47;;;-5.65;87.85
27202;BME280;14717;46.924;15.474;2022-12-13T07:58:34;97555.13;;;-5.51;88.04
27202;BME280;14717;46.924;15.474;2022-12-13T08:01:02;97559.06;;;-5.48;87.38
27202;BME280;14717;46.924;15.474;2022-12-13T08:03:28;97544.81;;;-5.42;87.90
27202;BME280;14717;46.924;15.474;2022-12-13T08:06:07;97556.59;;;-5.43;87.65
27202;BME280;14717;46.924;15.474;2022-12-13T08:08:34;97557.63;;;-5.50;87.64
27202;BME280;14717;46.924;15.474;2022-12-13T08:11:10;97559.69;;;-5.46;87.83
27202;BME280;14717;46.924;15.474;2022-12-13T08:13:39;97553.69;;;-5.48;87.24
27202;BME280;14717;46.924;15.474;2022-12-13T08:16:07;97550.38;;;-5.50;88.29
27202;BME280;14717;46.924;15.474;2022-12-13T08:18:33;97558.66;;;-5.45;88.06
27202;BME280;14717;46.924;15.474;2022-12-13T08:21:00;97555.78;;;-5.43;88.41
27202;BME280;14717;46.924;15.474;2022-12-13T08:23:26;97550.81;;;-5.40;89.23
27202;BME280;14717;46.924;15.474;2022-12-13T08:25:53;97551.03;;;-5.35;89.22
27202;BME280;14717;46.924;15.474;2022-12-13T08:28:19;97547.97;;;-5.25;89.21
27202;BME280;14717;46.924;15.474;2022-12-13T08:30:45;97541.97;;;-5.14;88.96
27202;BME280;14717;46.924;15.474;2022-12-13T08:33:11;97545.13;;;-4.98;89.02
27202;BME280;14717;46.924;15.474;2022-12-13T08:35:36;97545.78;;;-4.70;89.08
27202;BME280;14717;46.924;15.474;2022-12-13T08:38:02;97546.59;;;-4.51;86.67
27202;BME280;14717;46.924;15.474;2022-12-13T08:40:27;97543.72;;;-4.43;85.80
27202;BME280;14717;46.924;15.474;2022-12-13T08:42:56;97556.97;;;-4.48;85.65
27202;BME280;14717;46.924;15.474;2022-12-13T08:45:21;97553.25;;;-4.40;86.58
27202;BME280;14717;46.924;15.474;2022-12-13T08:47:51;97549.72;;;-4.22;85.25
27202;BME280;14717;46.924;15.474;2022-12-13T08:50:16;97549.03;;;-4.04;85.29
27202;BME280;14717;46.924;15.474;2022-12-13T08:52:41;97548.97;;;-3.72;85.55
27202;BME280;14717;46.924;15.474;2022-12-13T08:55:13;97551.03;;;-3.61;83.87
27202;BME280;14717;46.924;15.474;2022-12-13T08:57:40;97548.50;;;-3.50;83.74
27202;BME280;14717;46.924;15.474;2022-12-13T09:00:09;97550.50;;;-3.39;84.81
27202;BME280;14717;46.924;15.474;2022-12-13T09:02:35;97562.09;;;-3.32;84.78
27202;BME280;14717;46.924;15.474;2022-12-13T09:05:01;97556.03;;;-3.21;84.06
27202;BME280;14717;46.924;15.474;2022-12-13T09:07:27;97555.44;;;-3.23;83.98
27202;BME280;14717;46.924;15.474;2022-12-13T09:09:53;97543.16;;;-3.19;83.94
27202;BME280;14717;46.924;15.474;2022-12-13T09:12:18;97551.06;;;-2.87;83.22
27202;BME280;14717;46.924;15.474;2022-12-13T09:14:44;97545.44;;;-2.55;82.24
27202;BME280;14717;46.924;15.474;2022-12-13T09:17:10;97538.63;;;-2.33;81.28
27202;BME280;14717;46.924;15.474;2022-12-13T09:19:36;97536.78;;;-2.15;80.09
27202;BME280;14717;46.924;15.474;2022-12-13T09:22:01;97534.69;;;-2.13;77.40
27202;BME280;14717;46.924;15.474;2022-12-13T09:24:26;97525.81;;;-2.20;77.76
27202;BME280;14717;46.924;15.474;2022-12-13T09:26:52;97528.56;;;-2.26;78.56
27202;BME280;14717;46.924;15.474;2022-12-13T09:29:18;97516.13;;;-2.10;77.33
27202;BME280;14717;46.924;15.474;2022-12-13T09:31:43;97521.38;;;-2.14;76.59
27202;BME280;14717;46.924;15.474;2022-12-13T09:34:09;97514.44;;;-1.86;77.30
27202;BME280;14717;46.924;15.474;2022-12-13T09:36:35;97513.38;;;-2.03;76.12
27202;BME280;14717;46.924;15.474;2022-12-13T09:39:01;97506.91;;;-1.84;76.38
27202;BME280;14717;46.924;15.474;2022-12-13T09:41:53;97504.44;;;-1.68;76.29
27202;BME280;14717;46.924;15.474;2022-12-13T09:44:34;97501.13;;;-1.52;72.79
27202;BME280;14717;46.924;15.474;2022-12-13T09:47:03;97504.28;;;-1.73;73.27
27202;BME280;14717;46.924;15.474;2022-12-13T09:49:37;97498.13;;;-1.44;74.31
27202;BME280;14717;46.924;15.474;2022-12-13T09:52:04;97501.09;;;-1.17;71.61
27202;BME280;14717;46.924;15.474;2022-12-13T09:54:32;97505.84;;;-1.01;69.78
27202;BME280;14717;46.924;15.474;2022-12-13T09:56:58;97491.53;;;-0.90;68.14
27202;BME280;14717;46.924;15.474;2022-12-13T09:59:30;97499.66;;;-0.90;65.91
27202;BME280;14717;46.924;15.474;2022-12-13T10:02:02;97490.06;;;-1.04;65.48
27202;BME280;14717;46.924;15.474;2022-12-13T10:04:34;97495.97;;;-1.07;66.77
27202;BME280;14717;46.924;15.474;2022-12-13T10:06:59;97485.44;;;-0.74;66.87
27202;BME280;14717;46.924;15.474;2022-12-13T10:09:26;97479.94;;;-0.56;66.12
27202;BME280;14717;46.924;15.474;2022-12-13T10:11:52;97473.97;;;-0.47;66.37
27202;BME280;14717;46.924;15.474;2022-12-13T10:14:31;97469.94;;;-0.56;66.92
27202;BME280;14717;46.924;15.474;2022-12-13T10:17:02;97471.16;;;-0.41;68.19
27202;BME280;14717;46.924;15.474;2022-12-13T10:19:42;97470.31;;;-0.30;66.64
27202;BME280;14717;46.924;15.474;2022-12-13T10:22:16;97466.19;;;-0.43;67.28
27202;BME280;14717;46.924;15.474;2022-12-13T10:24:52;97466.03;;;-0.60;67.21
27202;BME280;14717;46.924;15.474;2022-12-13T10:27:25;97461.69;;;-0.49;66.47
27202;BME280;14717;46.924;15.474;2022-12-13T10:32:20;97456.16;;;-0.43;65.93
27202;BME280;14717;46.924;15.474;2022-12-13T10:34:46;97447.31;;;-0.39;65.03
27202;BME280;14717;46.924;15.474;2022-12-13T10:37:30;97457.50;;;-0.75;65.85
27202;BME280;14717;46.924;15.474;2022-12-13T10:39:57;97445.66;;;-0.40;67.54
27202;BME280;14717;46.924;15.474;2022-12-13T10:42:23;97453.00;;;-0.06;65.87
27202;BME280;14717;46.924;15.474;2022-12-13T10:44:48;97449.41;;;0.16;65.29
27202;BME280;14717;46.924;15.474;2022-12-13T10:47:29;97440.31;;;0.34;65.36
27202;BME280;14717;46.924;15.474;2022-12-13T10:49:56;97437.31;;;0.46;65.30
27202;BME280;14717;46.924;15.474;2022-12-13T10:52:32;97433.25;;;0.60;64.34
27202;BME280;14717;46.924;15.474;2022-12-13T10:55:04;97441.69;;;0.36;63.22
27202;BME280;14717;46.924;15.474;2022-12-13T10:57:31;97436.63;;;0.40;65.47
27202;BME280;14717;46.924;15.474;2022-12-13T10:59:57;97429.88;;;0.42;64.17
27202;BME280;14717;46.924;15.474;2022-12-13T11:02:36;97434.63;;;0.74;64.26
27202;BME280;14717;46.924;15.474;2022-12-13T11:07:46;97424.31;;;0.87;60.29
27202;BME280;14717;46.924;15.474;2022-12-13T11:10:28;97417.63;;;0.95;59.96
27202;BME280;14717;46.924;15.474;2022-12-13T11:13:02;97403.16;;;1.06;61.13
27202;BME280;14717;46.924;15.474;2022-12-13T11:15:31;97410.47;;;0.89;60.29
27202;BME280;14717;46.924;15.474;2022-12-13T11:18:04;97409.00;;;0.98;60.08
27202;BME280;14717;46.924;15.474;2022-12-13T11:20:32;97406.38;;;1.03;59.71
27202;BME280;14717;46.924;15.474;2022-12-13T11:23:06;97403.63;;;0.86;58.48
27202;BME280;14717;46.924;15.474;2022-12-13T11:25:39;97392.69;;;0.98;58.69
27202;BME280;14717;46.924;15.474;2022-12-13T11:28:15;97393.03;;;1.18;58.84
27202;BME280;14717;46.924;15.474;2022-12-13T11:33:26;97380.59;;;1.22;56.29
27202;BME280;14717;46.924;15.474;2022-12-13T11:41:26;97386.63;;;1.24;56.73
27202;BME280;14717;46.924;15.474;2022-12-13T11:44:44;97376.56;;;1.24;57.04
27202;BME280;14717;46.924;15.474;2022-12-13T11:46:47;97364.88;;;1.40;54.83
27202;BME280;14717;46.924;15.474;2022-12-13T11:52:15;97371.28;;;1.34;56.43
27202;BME280;14717;46.924;15.474;2022-12-13T11:57:23;97369.38;;;1.67;53.68
27202;BME280;14717;46.924;15.474;2022-12-13T12:00:00;97366.88;;;1.82;53.25
27202;BME280;14717;46.924;15.474;2022-12-13T12:02:34;97360.88;;;1.80;53.92
27202;BME280;14717;46.924;15.474;2022-12-13T12:05:36;97360.56;;;1.60;54.03
27202;BME280;14717;46.924;15.474;2022-12-13T12:08:11;97361.63;;;1.59;53.97
27202;BME280;14717;46.924;15.474;2022-12-13T12:10:42;97364.81;;;1.72;55.22
27202;BME280;14717;46.924;15.474;2022-12-13T12:13:25;97353.44;;;1.75;54.53
27202;BME280;14717;46.924;15.474;2022-12-13T12:16:13;97356.38;;;1.90;55.36
27202;BME280;14717;46.924;15.474;2022-12-13T12:18:43;97359.19;;;1.79;55.21
27202;BME280;14717;46.924;15.474;2022-12-13T12:24:18;97340.59;;;1.71;56.42
27202;BME280;14717;46.924;15.474;2022-12-13T12:35:50;97347.50;;;1.78;56.20
27202;BME280;14717;46.924;15.474;2022-12-13T12:38:37;97339.25;;;1.73;56.88
27202;BME280;14717;46.924;15.474;2022-12-13T12:43:54;97343.75;;;1.47;56.54
27202;BME280;14717;46.924;15.474;2022-12-13T12:46:45;97341.78;;;1.42;54.69
27202;BME280;14717;46.924;15.474;2022-12-13T12:52:43;97334.72;;;1.41;55.97
27202;BME280;14717;46.924;15.474;2022-12-13T12:55:18;97324.72;;;1.30;55.54
27202;BME280;14717;46.924;15.474;2022-12-13T13:00:21;97331.56;;;1.33;56.51
27202;BME280;14717;46.924;15.474;2022-12-13T13:03:03;97324.81;;;1.35;56.51
27202;BME280;14717;46.924;15.474;2022-12-13T13:05:53;97319.03;;;1.32;56.38
27202;BME280;14717;46.924;15.474;2022-12-13T13:08:49;97321.34;;;1.56;56.37
27202;BME280;14717;46.924;15.474;2022-12-13T13:14:38;97320.47;;;1.72;56.15
27202;BME280;14717;46.924;15.474;2022-12-13T13:19:46;97315.50;;;1.69;56.21
27202;BME280;14717;46.924;15.474;2022-12-13T13:22:31;97321.84;;;1.53;56.47
27202;BME280;14717;46.924;15.474;2022-12-13T13:25:20;97330.72;;;1.65;56.38
27202;BME280;14717;46.924;15.474;2022-12-13T13:27:48;97320.97;;;1.69;55.84
27202;BME280;14717;46.924;15.474;2022-12-13T13:32:40;97328.41;;;1.41;55.37
27202;BME280;14717;46.924;15.474;2022-12-13T13:38:26;97337.50;;;1.46;56.33
27202;BME280;14717;46.924;15.474;2022-12-13T13:40:52;97342.34;;;1.44;56.47
27202;BME280;14717;46.924;15.474;2022-12-13T13:43:28;97342.88;;;1.41;57.07
27202;BME280;14717;46.924;15.474;2022-12-13T13:48:57;97337.34;;;1.36;58.32
27202;BME280;14717;46.924;15.474;2022-12-13T14:00:07;97349.34;;;0.91;59.55
27202;BME280;14717;46.924;15.474;2022-12-13T14:11:24;97345.81;;;0.91;61.53
27202;BME280;14717;46.924;15.474;2022-12-13T14:22:45;97348.97;;;0.72;64.84
27202;BME280;14717;46.924;15.474;2022-12-13T14:25:51;97344.03;;;0.69;66.13
27202;BME280;14717;46.924;15.474;2022-12-13T14:28:33;97350.31;;;0.69;65.33
27202;BME280;14717;46.924;15.474;2022-12-13T14:31:13;97351.03;;;0.65;66.48
27202;BME280;14717;46.924;15.474;2022-12-13T14:33:42;97344.69;;;0.59;67.59
27202;BME280;14717;46.924;15.474;2022-12-13T14:36:13;97349.84;;;0.61;68.33
27202;BME280;14717;46.924;15.474;2022-12-13T14:38:39;97347.88;;;0.56;68.85